Time;durP1;ratioP1;P1;durP2;ratioP2;P2;SDS_P1;SDS_P2;PMS_P1;PMS_P2;Temp;Humidity;BMP_temperature;BMP_pressure;BME280_temperature;BME280_humidity;BME280_pressure;Samples;Min_cycle;Max_cycle;Signal;HPM_P1;HPM_P2
2022/05/24 00:01:44;;;;;;;11.63;5.25;;;;;;;9.52;64.48;99885.91;1681054;85;21520;-58
2022/05/24 00:04:13;;;;;;;11.83;5.28;;;;;;;9.50;64.50;99887.16;1680994;85;21040;-60
2022/05/24 00:06:42;;;;;;;10.13;5.50;;;;;;;9.50;64.45;99890.73;1680919;85;21036;-59
2022/05/24 00:09:11;;;;;;;11.38;5.67;;;;;;;9.51;64.29;99897.05;1681218;85;21047;-58
2022/05/24 00:11:39;;;;;;;15.32;5.75;;;;;;;9.45;64.18;99894.60;1681102;85;21027;-59
2022/05/24 00:14:08;;;;;;;10.90;5.65;;;;;;;9.44;64.22;99897.02;1680921;85;21388;-58
2022/05/24 00:16:39;;;;;;;13.35;5.78;;;;;;;9.46;64.25;99890.82;1681024;85;20973;-62
2022/05/24 00:19:08;;;;;;;13.58;5.80;;;;;;;9.46;64.28;99893.56;1681032;85;20977;-58
2022/05/24 00:21:37;;;;;;;11.18;5.90;;;;;;;9.43;64.38;99891.23;1681081;85;21397;-58
2022/05/24 00:24:08;;;;;;;12.35;5.33;;;;;;;9.39;64.43;99888.58;1681163;85;21049;-60
2022/05/24 00:26:37;;;;;;;10.75;5.62;;;;;;;9.40;64.49;99892.16;1681046;84;21064;-58
2022/05/24 00:29:05;;;;;;;14.00;5.85;;;;;;;9.38;64.50;99895.62;1681086;85;21017;-58
2022/05/24 00:31:34;;;;;;;14.45;6.00;;;;;;;9.35;64.52;99902.34;1681046;85;21412;-58
2022/05/24 00:34:03;;;;;;;12.75;6.28;;;;;;;9.30;64.66;99893.89;1681055;85;20960;-61
2022/05/24 00:36:31;;;;;;;13.05;6.40;;;;;;;9.24;64.81;99896.07;1681198;85;20984;-60
2022/05/24 00:39:00;;;;;;;13.43;5.87;;;;;;;9.23;65.07;99896.27;1681119;85;21413;-59
2022/05/24 00:41:34;;;;;;;12.55;5.70;;;;;;;9.19;65.00;99893.94;1681071;85;21000;-59
2022/05/24 00:44:30;;;;;;;12.03;5.67;;;;;;;9.13;65.08;99896.64;1680040;85;21464;-61
2022/05/24 00:47:15;;;;;;;12.35;5.80;;;;;;;9.02;65.38;99898.53;1681181;85;21056;-58
2022/05/24 00:49:58;;;;;;;12.75;6.37;;;;;;;8.96;65.57;99901.53;1680976;85;21441;-60
2022/05/24 00:52:51;;;;;;;12.60;6.05;;;;;;;8.89;65.81;99899.28;1680666;85;21024;-60
2022/05/24 00:55:22;;;;;;;11.50;6.25;;;;;;;8.86;66.05;99895.58;1653860;85;21032;-60
2022/05/24 00:58:26;;;;;;;14.15;6.75;;;;;;;8.85;66.10;99906.19;1681076;85;21425;-59
2022/05/24 01:00:55;;;;;;;23.30;5.83;;;;;;;8.84;66.33;99901.77;1680755;84;21012;-58
2022/05/24 01:03:23;;;;;;;11.70;5.70;;;;;;;8.82;66.64;99903.85;1681245;85;21028;-62
2022/05/24 01:05:52;;;;;;;13.13;6.67;;;;;;;8.82;66.76;99908.79;1654545;85;21039;-58
2022/05/24 01:08:21;;;;;;;13.20;6.42;;;;;;;8.82;66.91;99907.95;1681016;85;20996;-59
2022/05/24 01:10:51;;;;;;;14.35;6.10;;;;;;;8.78;67.05;99907.50;1681084;85;21012;-59
2022/05/24 01:13:26;;;;;;;12.58;6.78;;;;;;;8.77;67.12;99907.70;1681016;85;21035;-58
2022/05/24 01:15:55;;;;;;;14.65;6.45;;;;;;;8.78;67.16;99909.39;1681236;85;21016;-59
2022/05/24 01:18:24;;;;;;;12.30;6.35;;;;;;;8.76;66.93;99908.74;1653835;85;21068;-60
2022/05/24 01:20:58;;;;;;;10.72;6.17;;;;;;;8.70;66.91;99911.74;1681125;85;21052;-58
2022/05/24 01:23:36;;;;;;;11.75;6.40;;;;;;;8.64;67.28;99909.80;1681123;85;21004;-58
2022/05/24 01:26:46;;;;;;;11.45;6.30;;;;;;;8.60;67.51;99909.87;1674846;85;21043;-58
2022/05/24 01:29:16;;;;;;;13.22;6.12;;;;;;;8.57;67.76;99909.75;1628728;87;21123;-59
2022/05/24 01:37:22;;;;;;;12.98;6.03;;;;;;;8.55;67.88;99917.29;1657271;86;20977;-58
2022/05/24 01:39:52;;;;;;;14.70;6.42;;;;;;;8.55;67.89;99910.98;1657164;86;21015;-59
2022/05/24 01:42:21;;;;;;;12.75;6.05;;;;;;;8.53;68.09;99915.28;1657039;86;21025;-60
2022/05/24 01:44:55;;;;;;;13.03;6.78;;;;;;;8.53;68.29;99905.72;1657286;86;21000;-58
2022/05/24 01:47:23;;;;;;;16.05;6.58;;;;;;;8.51;68.36;99916.52;1657094;86;20977;-62
2022/05/24 01:49:57;;;;;;;16.30;7.03;;;;;;;8.48;68.34;99915.02;1657155;86;21437;-59
2022/05/24 01:52:39;;;;;;;15.00;7.12;;;;;;;8.44;68.37;99910.96;1657120;86;21401;-58
2022/05/24 01:55:14;;;;;;;14.73;6.83;;;;;;;8.46;68.47;99910.28;1657136;86;21036;-59
2022/05/24 01:57:46;;;;;;;14.75;7.15;;;;;;;8.49;68.37;99914.50;1657086;86;21008;-60
2022/05/24 02:00:15;;;;;;;18.40;7.80;;;;;;;8.48;68.25;99916.39;1657189;86;20989;-60
2022/05/24 02:02:45;;;;;;;17.55;7.05;;;;;;;8.49;68.17;99916.71;1657174;86;20965;-58
2022/05/24 02:05:14;;;;;;;16.00;7.85;;;;;;;8.56;68.09;99919.50;1657146;86;21013;-60
2022/05/24 02:07:43;;;;;;;12.28;7.05;;;;;;;8.60;67.94;99918.06;1657083;86;20961;-59
2022/05/24 02:10:12;;;;;;;14.20;6.00;;;;;;;8.64;67.91;99919.36;1657115;86;21017;-58
2022/05/24 02:12:46;;;;;;;13.08;6.78;;;;;;;8.63;67.88;99923.66;1657123;86;20988;-60
2022/05/24 02:15:22;;;;;;;13.18;6.30;;;;;;;8.55;68.01;99926.84;1657097;86;20962;-59
2022/05/24 02:18:08;;;;;;;12.30;6.70;;;;;;;8.46;68.25;99925.81;1657139;86;21227;-59
2022/05/24 02:20:39;;;;;;;14.03;6.87;;;;;;;8.39;68.62;99936.64;1657228;86;20949;-59
2022/05/24 02:23:09;;;;;;;11.83;6.42;;;;;;;8.35;68.85;99935.34;1657119;86;20973;-60
2022/05/24 02:25:46;;;;;;;14.63;7.25;;;;;;;8.33;69.09;99937.42;1657085;86;21425;-58
2022/05/24 02:28:15;;;;;;;14.55;7.00;;;;;;;8.26;69.16;99939.20;1657061;86;21369;-59
2022/05/24 02:30:55;;;;;;;13.08;6.17;;;;;;;8.21;69.49;99932.96;1657105;86;21001;-58
2022/05/24 02:33:24;;;;;;;15.88;6.87;;;;;;;8.24;69.64;99937.19;1657091;86;21013;-59
2022/05/24 02:35:53;;;;;;;11.65;6.87;;;;;;;8.25;69.74;99936.98;1657249;86;20976;-58
2022/05/24 02:38:22;;;;;;;17.87;7.40;;;;;;;8.24;69.89;99941.28;1657128;86;20942;-59
2022/05/24 02:43:38;;;;;;;16.47;7.80;;;;;;;8.25;70.14;99937.52;1657474;86;21021;-58
2022/05/24 02:46:08;;;;;;;17.77;7.67;;;;;;;8.25;70.26;99940.23;1657033;86;21402;-58
2022/05/24 02:48:37;;;;;;;15.75;7.58;;;;;;;8.26;70.33;99935.11;1657139;86;21021;-57
2022/05/24 02:51:09;;;;;;;14.05;8.00;;;;;;;8.25;70.39;99937.52;1657148;86;21005;-59
2022/05/24 02:53:39;;;;;;;13.38;7.50;;;;;;;8.23;70.38;99950.51;1657109;86;20957;-58
2022/05/24 02:56:08;;;;;;;17.35;6.70;;;;;;;8.17;70.63;99952.12;1657100;86;21044;-59
2022/05/24 02:58:36;;;;;;;14.33;7.40;;;;;;;8.10;70.82;99954.45;1657218;86;21009;-59
2022/05/24 03:01:18;;;;;;;15.45;7.78;;;;;;;8.07;71.04;99949.38;1657150;86;20969;-59
2022/05/24 03:03:48;;;;;;;22.90;7.95;;;;;;;8.10;71.16;99947.63;1657089;86;20965;-58
2022/05/24 03:06:19;;;;;;;16.80;7.90;;;;;;;8.16;71.20;99957.78;1605628;89;21488;-58
2022/05/24 03:14:23;;;;;;;23.98;10.05;;;;;;;8.44;70.68;99963.35;1617779;88;21047;-59
2022/05/24 03:16:52;;;;;;;19.12;10.08;;;;;;;8.54;70.13;99964.75;1605806;89;21039;-59
2022/05/24 03:19:23;;;;;;;24.50;10.95;;;;;;;8.63;69.39;99958.63;1635228;88;21043;-59
2022/05/24 03:21:52;;;;;;;26.62;10.88;;;;;;;8.71;68.72;99966.69;1605708;89;21040;-59
2022/05/24 03:24:21;;;;;;;24.35;11.45;;;;;;;8.79;68.38;99965.19;1658756;85;20999;-58
2022/05/24 03:26:50;;;;;;;23.05;10.80;;;;;;;8.89;67.84;99970.31;1688642;85;21075;-59
2022/05/24 03:29:19;;;;;;;20.88;10.03;;;;;;;8.98;67.30;99971.86;1690271;85;21440;-58
2022/05/24 03:31:49;;;;;;;25.08;10.65;;;;;;;9.10;66.90;99971.67;1690315;85;21424;-58
2022/05/24 03:34:17;;;;;;;22.32;10.65;;;;;;;9.22;66.57;99974.70;1690087;85;21015;-59
2022/05/24 03:36:46;;;;;;;27.05;11.33;;;;;;;9.31;66.20;99970.77;1690115;85;21008;-59
2022/05/24 03:39:15;;;;;;;25.57;10.63;;;;;;;9.38;65.91;99973.55;1690056;85;21448;-59
2022/05/24 03:41:46;;;;;;;23.83;11.48;;;;;;;9.46;65.55;99976.96;1690264;85;20995;-59
2022/05/24 03:44:15;;;;;;;23.77;11.55;;;;;;;9.53;65.32;99972.90;1690052;85;21015;-59
2022/05/24 03:46:45;;;;;;;26.50;11.50;;;;;;;9.60;65.29;99973.78;1656546;86;21007;-59
2022/05/24 03:49:15;;;;;;;26.95;11.57;;;;;;;9.64;65.22;99977.80;1690094;85;21040;-59
2022/05/24 03:51:43;;;;;;;25.62;11.65;;;;;;;9.70;64.75;99974.78;1690039;85;21000;-59
2022/05/24 03:54:14;;;;;;;24.67;11.90;;;;;;;9.78;64.62;99968.64;1689275;85;21463;-59
2022/05/24 03:57:59;;;;;;;25.25;11.97;;;;;;;9.88;64.53;99974.27;1690031;85;21343;-58
2022/05/24 03:59:13;;;;;;;23.42;11.03;;;;;;;9.94;64.39;99972.08;1686445;85;21023;-58
2022/05/24 04:01:42;;;;;;;21.65;11.22;;;;;;;10.00;64.18;99974.84;1690192;85;21159;-59
2022/05/24 04:04:11;;;;;;;24.65;11.95;;;;;;;10.06;64.02;99971.29;1689955;85;20992;-58
2022/05/24 04:06:40;;;;;;;24.25;11.55;;;;;;;10.12;63.93;99977.84;1690070;85;21015;-59
2022/05/24 04:09:10;;;;;;;24.60;12.00;;;;;;;10.20;63.97;99974.07;1690273;85;20972;-59
2022/05/24 04:11:42;;;;;;;22.82;11.63;;;;;;;10.27;63.92;99970.86;1690185;85;21032;-59
2022/05/24 04:14:11;;;;;;;25.32;11.22;;;;;;;10.36;63.77;99970.47;1690073;85;21020;-60
2022/05/24 04:16:39;;;;;;;24.45;11.00;;;;;;;10.47;63.65;99981.37;1690079;85;21003;-60
2022/05/24 04:19:08;;;;;;;18.70;9.95;;;;;;;10.58;63.54;99989.50;1690084;85;20992;-59
2022/05/24 04:21:37;;;;;;;21.20;8.95;;;;;;;10.67;63.48;99985.52;1690180;85;21107;-59
2022/05/24 04:24:07;;;;;;;20.85;12.20;;;;;;;10.77;63.35;99991.43;1690219;85;21031;-58
2022/05/24 04:26:36;;;;;;;16.60;8.60;;;;;;;10.88;62.52;99984.48;1689788;84;21027;-60
2022/05/24 04:29:05;;;;;;;20.48;8.95;;;;;;;10.98;61.95;99987.13;1688156;85;21028;-60
2022/05/24 04:31:34;;;;;;;15.00;8.20;;;;;;;11.09;61.80;99987.89;1688106;85;20960;-61
2022/05/24 04:34:05;;;;;;;15.80;7.87;;;;;;;11.20;61.06;99995.16;1688008;85;20981;-60
2022/05/24 04:36:36;;;;;;;18.27;7.60;;;;;;;11.30;60.71;99998.32;1688153;85;20988;-58
2022/05/24 04:39:06;;;;;;;17.00;6.40;;;;;;;11.39;60.47;99998.42;1688049;84;21036;-60
2022/05/24 04:44:23;;;;;;;18.37;6.97;;;;;;;11.60;58.66;99987.72;1688259;85;21059;-59
2022/05/24 04:47:07;;;;;;;14.28;6.40;;;;;;;11.72;57.88;99993.73;1688177;85;21049;-60
2022/05/24 04:49:38;;;;;;;16.12;6.80;;;;;;;11.86;56.94;99995.10;1688148;85;21016;-59
2022/05/24 04:52:07;;;;;;;15.43;6.30;;;;;;;12.04;55.96;100005.70;1688193;85;21024;-59
2022/05/24 04:54:37;;;;;;;14.43;6.37;;;;;;;12.23;55.15;100001.19;1688184;85;21432;-59
2022/05/24 04:57:06;;;;;;;16.55;6.33;;;;;;;12.49;54.31;99998.02;1688096;85;20980;-58
2022/05/24 04:59:35;;;;;;;14.93;6.00;;;;;;;12.83;53.35;99997.59;1688150;85;20960;-59
2022/05/24 05:02:04;;;;;;;16.75;6.65;;;;;;;13.24;52.10;100003.99;1688029;85;21043;-60
2022/05/24 05:04:33;;;;;;;15.03;6.25;;;;;;;13.63;50.78;99998.64;1688018;85;21027;-60
2022/05/24 05:07:02;;;;;;;16.97;6.60;;;;;;;14.00;49.55;100001.98;1688176;85;21427;-60
2022/05/24 05:09:34;;;;;;;11.90;7.00;;;;;;;14.36;48.28;99997.00;1688265;85;21020;-60
2022/05/24 05:12:05;;;;;;;20.32;7.50;;;;;;;14.75;47.48;100001.98;1688181;85;21016;-59
2022/05/24 05:14:35;;;;;;;12.00;6.72;;;;;;;15.11;44.93;99998.27;1688213;85;21404;-60
2022/05/24 05:17:06;;;;;;;11.40;6.22;;;;;;;15.38;44.45;100006.95;1687382;85;20983;-60
2022/05/24 05:19:36;;;;;;;12.47;5.70;;;;;;;15.68;43.57;100006.89;1688201;85;20984;-60
2022/05/24 05:22:05;;;;;;;12.78;6.50;;;;;;;16.05;42.00;100008.84;1688126;85;21011;-60
2022/05/24 05:24:34;;;;;;;11.97;6.33;;;;;;;16.44;41.22;100004.98;1688318;85;20988;-60
2022/05/24 05:27:04;;;;;;;12.43;6.08;;;;;;;16.73;40.46;100004.47;1688063;84;21089;-60
2022/05/24 05:32:23;;;;;;;12.40;6.40;;;;;;;17.19;38.95;100001.17;1688330;85;21024;-59
2022/05/24 05:34:52;;;;;;;17.00;6.87;;;;;;;17.41;37.88;100001.55;1688204;85;21004;-60
2022/05/24 05:37:20;;;;;;;15.38;6.55;;;;;;;17.58;37.24;100002.11;1688183;85;20992;-61
2022/05/24 05:39:51;;;;;;;12.35;6.70;;;;;;;17.76;36.89;100001.03;1687903;85;21408;-59
2022/05/24 05:42:21;;;;;;;9.83;5.15;;;;;;;17.93;37.01;100001.28;1688063;85;21388;-59
2022/05/24 05:44:49;;;;;;;10.10;5.40;;;;;;;18.15;35.95;100002.69;1688421;85;21037;-64
2022/05/24 05:47:19;;;;;;;13.88;5.42;;;;;;;18.42;35.47;100000.56;1688226;85;21020;-60
2022/05/24 05:49:48;;;;;;;8.43;5.00;;;;;;;18.71;35.08;100007.59;1688114;85;21397;-59
2022/05/24 05:52:19;;;;;;;13.43;5.25;;;;;;;19.05;34.56;100001.86;1688125;85;21004;-60
2022/05/24 05:54:47;;;;;;;11.28;4.62;;;;;;;19.30;33.24;100011.80;1688269;85;21012;-60
2022/05/24 05:57:17;;;;;;;6.00;3.90;;;;;;;19.45;33.72;100009.70;1666551;85;21051;-62
2022/05/24 05:59:46;;;;;;;11.57;5.28;;;;;;;19.61;32.47;99998.50;1688156;85;21114;-60
2022/05/24 06:02:15;;;;;;;9.00;4.80;;;;;;;19.64;32.50;100004.08;1688179;85;21444;-59
2022/05/24 06:04:45;;;;;;;7.75;4.08;;;;;;;19.52;33.03;100001.49;1688321;85;21024;-60
2022/05/24 06:07:15;;;;;;;9.33;4.28;;;;;;;19.65;32.57;100010.48;1688045;85;21040;-61
2022/05/24 06:09:44;;;;;;;5.58;3.40;;;;;;;19.92;31.58;100014.83;1688329;85;20991;-59
2022/05/24 06:12:13;;;;;;;8.05;3.33;;;;;;;20.05;29.86;100011.28;1688165;85;20996;-60
2022/05/24 06:14:44;;;;;;;6.28;3.00;;;;;;;20.22;29.14;100007.79;1635132;88;21440;-61
2022/05/24 06:17:16;;;;;;;4.87;2.90;;;;;;;20.25;29.11;100011.42;1615695;88;21032;-60
2022/05/24 06:19:46;;;;;;;4.97;2.95;;;;;;;20.21;28.71;100008.34;1605837;89;21011;-60
2022/05/24 06:22:14;;;;;;;6.08;3.08;;;;;;;20.35;28.71;100016.20;1635155;88;21088;-60
2022/05/24 06:24:46;;;;;;;7.70;3.35;;;;;;;20.44;28.15;100014.05;1605835;89;21055;-59
2022/05/24 06:27:17;;;;;;;6.35;3.70;;;;;;;20.54;28.38;100026.61;1634430;86;21074;-61
2022/05/24 06:29:45;;;;;;;6.15;3.02;;;;;;;20.78;28.48;100016.38;1600905;88;21016;-61
2022/05/24 06:32:16;;;;;;;5.42;3.58;;;;;;;21.01;28.26;100015.91;1621822;88;21582;-59
2022/05/24 06:34:48;;;;;;;5.10;3.35;;;;;;;21.01;28.28;100013.13;1621556;88;21102;-59
2022/05/24 06:37:20;;;;;;;5.80;3.25;;;;;;;21.11;28.52;100014.53;1621584;88;21024;-58
2022/05/24 06:39:50;;;;;;;4.78;3.00;;;;;;;21.22;28.29;100008.41;1661319;85;21048;-61
2022/05/24 06:42:19;;;;;;;5.50;3.22;;;;;;;21.20;27.35;100011.47;1680933;85;21048;-61
2022/05/24 06:44:48;;;;;;;5.55;2.75;;;;;;;21.16;27.73;100007.56;1680956;85;21039;-59
2022/05/24 06:47:18;;;;;;;3.98;2.80;;;;;;;21.31;28.42;100007.33;1680953;85;21467;-59
2022/05/24 06:49:49;;;;;;;4.33;3.17;;;;;;;21.66;27.87;100012.92;1681109;85;21404;-59
2022/05/24 06:52:18;;;;;;;8.65;3.17;;;;;;;21.90;27.58;100007.59;1680944;85;21392;-58
2022/05/24 06:54:47;;;;;;;5.37;2.67;;;;;;;21.97;27.57;100005.90;1681023;85;21384;-59
2022/05/24 06:57:17;;;;;;;5.55;2.80;;;;;;;22.15;25.88;100012.33;1681051;85;21020;-59
2022/05/24 07:02:33;;;;;;;5.00;2.85;;;;;;;22.19;24.96;100001.44;1621704;87;21509;-59
2022/05/24 07:05:10;;;;;;;6.90;2.62;;;;;;;22.23;24.35;100004.77;1663753;85;21000;-60
2022/05/24 07:07:39;;;;;;;6.80;2.50;;;;;;;22.51;24.14;100020.57;1681191;85;21080;-59
2022/05/24 07:10:12;;;;;;;9.28;2.55;;;;;;;22.77;23.19;100006.22;1680951;85;21412;-58
2022/05/24 07:12:41;;;;;;;6.17;2.40;;;;;;;22.84;23.38;100015.72;1681058;85;21056;-58
2022/05/24 07:15:11;;;;;;;6.22;2.70;;;;;;;22.82;22.17;100024.11;1680973;85;21053;-58
2022/05/24 07:17:41;;;;;;;6.42;2.50;;;;;;;22.54;22.65;100020.00;1681065;85;21042;-59
2022/05/24 07:20:10;;;;;;;6.70;2.30;;;;;;;22.49;22.64;100018.06;1680960;85;21048;-62
2022/05/24 07:22:40;;;;;;;6.03;2.35;;;;;;;22.35;22.52;100020.63;1681031;85;21389;-59
2022/05/24 07:25:10;;;;;;;5.15;2.10;;;;;;;22.36;21.94;100025.09;1680955;85;21496;-59
2022/05/24 07:27:39;;;;;;;3.80;1.90;;;;;;;22.46;22.65;100024.22;1680855;85;21036;-58
2022/05/24 07:30:08;;;;;;;5.55;2.25;;;;;;;22.59;22.38;100025.00;1653904;85;21448;-59
2022/05/24 07:32:37;;;;;;;4.35;2.00;;;;;;;22.67;22.54;100021.61;1680909;84;21048;-60
2022/05/24 07:35:08;;;;;;;3.58;1.95;;;;;;;22.81;21.84;100022.44;1680931;85;20996;-59
2022/05/24 07:37:38;;;;;;;7.95;2.70;;;;;;;22.81;21.54;100028.03;1680978;85;21463;-59
2022/05/24 07:48:14;;;;;;;3.00;1.75;;;;;;;23.14;20.51;100032.02;1669082;85;21048;-60
2022/05/24 07:50:43;;;;;;;4.75;1.62;;;;;;;23.09;20.98;100028.69;1653568;85;21029;-60
2022/05/24 07:53:11;;;;;;;3.72;1.90;;;;;;;23.08;20.61;100025.62;1653868;85;21065;-62
2022/05/24 07:55:40;;;;;;;6.12;2.60;;;;;;;23.22;21.07;100016.03;1661012;86;21020;-59
2022/05/24 07:58:12;;;;;;;6.92;1.90;;;;;;;23.34;20.72;100021.52;1630711;88;21005;-59
2022/05/24 08:00:41;;;;;;;3.25;1.70;;;;;;;23.50;20.01;100017.23;1625585;88;21005;-60
2022/05/24 08:03:10;;;;;;;3.30;1.67;;;;;;;23.59;20.01;100021.09;1635545;87;20996;-59
2022/05/24 08:05:39;;;;;;;2.55;1.57;;;;;;;23.67;19.92;100018.50;1652130;87;21428;-62
2022/05/24 08:08:08;;;;;;;3.40;1.92;;;;;;;23.73;19.31;100022.66;1652165;87;21076;-59
2022/05/24 08:10:38;;;;;;;2.45;1.80;;;;;;;23.69;19.95;100027.44;1652206;87;21024;-62
2022/05/24 08:13:10;;;;;;;3.65;1.80;;;;;;;23.69;19.98;100026.60;1652350;87;21066;-60
2022/05/24 08:15:39;;;;;;;2.58;1.70;;;;;;;23.58;19.61;100018.87;1652307;87;21057;-60
2022/05/24 08:18:08;;;;;;;4.75;2.15;;;;;;;23.44;19.53;100022.03;1652204;87;20985;-60
2022/05/24 08:20:38;;;;;;;8.30;2.50;;;;;;;23.31;19.79;100024.06;1638989;87;21034;-60
2022/05/24 08:23:08;;;;;;;7.87;2.40;;;;;;;23.30;20.45;100026.02;1627014;88;21002;-58
2022/05/24 08:25:39;;;;;;;2.95;1.90;;;;;;;23.47;20.29;100029.84;1621324;87;21003;-60
2022/05/24 08:28:07;;;;;;;3.72;1.75;;;;;;;23.66;20.29;100025.23;1630263;85;21038;-59
2022/05/24 08:30:38;;;;;;;5.05;1.90;;;;;;;23.90;20.56;100032.27;1647933;86;21057;-60
2022/05/24 08:33:08;;;;;;;5.10;1.77;;;;;;;24.04;19.92;100027.65;1647836;87;20974;-60
2022/05/24 08:35:37;;;;;;;3.27;1.90;;;;;;;24.05;19.94;100017.29;1647938;86;21433;-60
2022/05/24 08:38:06;;;;;;;5.05;2.22;;;;;;;24.14;19.78;100021.70;1647920;87;20949;-60
2022/05/24 08:40:37;;;;;;;4.08;1.90;;;;;;;24.07;19.56;100024.02;1648031;87;21373;-59
2022/05/24 08:43:46;;;;;;;2.40;1.70;;;;;;;24.00;19.96;100034.14;1648032;87;21010;-61
2022/05/24 08:49:13;;;;;;;5.95;1.90;;;;;;;24.23;19.32;100026.36;1621620;88;21020;-60
2022/05/24 08:51:50;;;;;;;2.35;1.85;;;;;;;24.02;19.76;100011.72;1621543;88;21424;-63
2022/05/24 08:54:29;;;;;;;4.95;1.95;;;;;;;23.97;20.07;100025.77;1635760;86;21101;-61
2022/05/24 08:57:01;;;;;;;3.17;2.08;;;;;;;23.91;20.24;100030.31;1651985;86;21057;-58
2022/05/24 08:59:47;;;;;;;3.87;1.52;;;;;;;23.88;19.81;100032.30;1697719;84;21039;-59
2022/05/24 09:02:15;;;;;;;15.53;7.92;;;;;;;23.81;19.72;100029.84;1697762;84;21011;-60
2022/05/24 09:04:44;;;;;;;8.45;3.87;;;;;;;23.67;19.95;100025.50;1697755;84;20992;-59
2022/05/24 09:07:34;;;;;;;6.60;3.08;;;;;;;23.57;20.12;100024.75;1697793;84;21003;-61
2022/05/24 09:10:20;;;;;;;3.67;2.22;;;;;;;23.49;20.41;100019.20;1697804;84;21089;-58
2022/05/24 09:13:03;;;;;;;;;;;;;;;23.45;20.71;100015.88;1674026;84;21444;-60
2022/05/24 09:19:35;;;;;;;3.20;1.52;;;;;;;23.20;20.41;100032.25;1697838;84;21023;-60
2022/05/24 09:22:06;;;;;;;8.55;1.90;;;;;;;22.84;20.95;100027.45;1680718;84;21032;-58
2022/05/24 09:24:45;;;;;;;4.60;1.70;;;;;;;22.62;21.25;100018.00;1676725;85;20992;-58
2022/05/24 09:27:30;;;;;;;3.30;1.67;;;;;;;22.38;21.41;100019.23;1632623;87;21616;-59
2022/05/24 09:30:30;;;;;;;10.55;2.02;;;;;;;22.30;21.54;100017.03;1647921;86;21024;-59
2022/05/24 09:33:24;;;;;;;3.02;1.90;;;;;;;22.26;21.79;100020.95;1652194;87;20997;-59
2022/05/24 09:36:00;;;;;;;2.42;1.60;;;;;;;22.14;21.66;100014.28;1652469;87;21020;-61
2022/05/24 09:38:39;;;;;;;3.37;1.90;;;;;;;21.94;21.68;100012.05;1652578;86;21452;-61
2022/05/24 09:41:22;;;;;;;3.08;2.02;;;;;;;21.77;22.00;100014.58;1635182;87;21033;-61
2022/05/24 09:44:06;;;;;;;3.45;1.47;;;;;;;21.71;22.44;100008.73;1652223;86;21131;-61
2022/05/24 09:46:36;;;;;;;4.47;1.62;;;;;;;21.71;22.09;100005.95;1652213;87;21445;-61
2022/05/24 09:49:25;;;;;;;3.25;1.75;;;;;;;21.67;22.77;100013.77;1654875;85;21032;-60
2022/05/24 09:51:56;;;;;;;4.22;1.70;;;;;;;21.62;22.36;100015.16;1656908;86;21007;-59
2022/05/24 09:54:28;;;;;;;5.50;1.92;;;;;;;21.56;22.61;100020.46;1636619;86;21091;-61
2022/05/24 09:57:08;;;;;;;1.90;1.60;;;;;;;21.56;22.94;100024.64;1657104;86;21024;-59
2022/05/24 09:59:40;;;;;;;3.47;1.52;;;;;;;21.50;22.47;100013.50;1656704;86;21060;-59
2022/05/24 10:02:30;;;;;;;2.98;1.65;;;;;;;21.30;22.60;100012.06;1656983;86;21376;-60
2022/05/24 10:05:02;;;;;;;4.20;1.70;;;;;;;21.17;23.07;100009.24;1656984;86;21421;-59
2022/05/24 10:07:33;;;;;;;4.83;1.55;;;;;;;21.18;23.49;100009.52;1656987;86;21032;-59
2022/05/24 10:10:16;;;;;;;3.05;1.90;;;;;;;21.12;22.90;100014.81;1657141;86;21012;-62
2022/05/24 10:13:08;;;;;;;5.22;1.80;;;;;;;21.00;23.04;100014.79;1638401;86;21000;-62
2022/05/24 10:16:01;;;;;;;3.47;1.60;;;;;;;20.96;23.34;100020.08;1656928;86;21025;-60
2022/05/24 10:19:05;;;;;;;3.75;1.57;;;;;;;20.95;23.32;100016.17;1655105;86;21040;-61
2022/05/24 10:22:08;;;;;;;2.72;1.60;;;;;;;20.94;23.15;100017.28;1598756;89;21052;-60
2022/05/24 10:25:08;;;;;;;3.90;1.60;;;;;;;20.83;23.29;100009.47;1652953;86;21468;-67
2022/05/24 10:28:09;;;;;;;3.50;1.80;;;;;;;20.66;23.45;100008.83;1657060;86;21040;-60
2022/05/24 10:31:05;;;;;;;3.15;1.50;;;;;;;20.51;23.84;100006.27;1656987;86;21013;-61
2022/05/24 10:38:17;;;;;;;6.10;2.20;;;;;;;20.49;24.25;99995.97;1662377;85;20472;-61
2022/05/24 10:40:08;;;;;;;6.17;2.17;;;;;;;20.46;24.46;99990.11;1658837;86;20999;-60
2022/05/24 10:43:17;;;;;;;2.40;1.50;;;;;;;20.52;24.54;99991.80;1661954;86;20971;-62
2022/05/24 10:45:55;;;;;;;4.28;1.52;;;;;;;20.63;24.46;99995.45;1661870;86;21572;-61
2022/05/24 10:48:33;;;;;;;3.08;1.50;;;;;;;20.61;24.19;100011.59;1661294;86;21024;-60
2022/05/24 10:51:26;;;;;;;2.22;1.57;;;;;;;20.56;24.10;100004.91;1667282;85;21408;-59
2022/05/24 10:54:00;;;;;;;2.92;1.52;;;;;;;20.52;24.06;100000.16;1687945;85;21035;-58
2022/05/24 10:56:55;;;;;;;2.90;1.37;;;;;;;20.51;24.64;100002.10;1687970;85;21019;-58
2022/05/24 10:59:45;;;;;;;2.60;1.47;;;;;;;20.49;24.88;100000.14;1663589;85;21044;-59
2022/05/24 11:02:47;;;;;;;4.78;1.95;;;;;;;20.42;24.57;99998.17;1687942;85;20996;-59
2022/05/24 11:05:30;;;;;;;5.80;1.98;;;;;;;20.38;25.05;100000.34;1700571;83;21094;-59
2022/05/24 11:08:28;;;;;;;3.55;1.50;;;;;;;20.38;24.96;100001.73;1687990;85;21020;-59
2022/05/24 11:10:59;;;;;;;2.12;1.57;;;;;;;20.36;24.58;99990.05;1688071;85;20968;-59
2022/05/24 11:13:43;;;;;;;4.10;1.70;;;;;;;20.31;25.16;99983.06;1687921;85;21035;-62
2022/05/24 11:16:20;;;;;;;3.17;1.50;;;;;;;20.34;25.02;99981.97;1687944;85;21008;-60
2022/05/24 11:18:50;;;;;;;2.80;1.60;;;;;;;20.44;25.33;99989.00;1688033;85;21007;-62
2022/05/24 11:21:22;;;;;;;2.33;1.77;;;;;;;20.55;25.14;99985.13;1687979;85;20992;-61
2022/05/24 11:23:59;;;;;;;3.67;1.30;;;;;;;20.64;24.86;99985.99;1687584;83;21008;-62
2022/05/24 11:26:35;;;;;;;1.62;1.20;;;;;;;20.67;24.95;99987.67;1662290;85;21425;-63
2022/05/24 11:29:30;;;;;;;2.85;1.35;;;;;;;20.64;24.72;99983.21;1682286;85;20992;-60
2022/05/24 11:32:01;;;;;;;2.25;1.50;;;;;;;20.63;24.83;99985.72;1680956;85;21013;-59
2022/05/24 11:34:35;;;;;;;4.20;2.05;;;;;;;20.60;24.79;99983.48;1679591;85;21013;-62
2022/05/24 11:37:26;;;;;;;2.37;1.52;;;;;;;20.55;25.12;99989.87;1679374;85;21024;-61
2022/05/24 11:39:59;;;;;;;2.15;1.42;;;;;;;20.55;25.47;100001.00;1679397;85;21013;-59
2022/05/24 11:42:44;;;;;;;3.45;1.40;;;;;;;20.54;25.05;99982.07;1650265;85;21032;-59
2022/05/24 11:45:36;;;;;;;3.80;1.60;;;;;;;20.45;25.06;99980.09;1679708;85;21016;-60
2022/05/24 11:48:16;;;;;;;4.70;2.52;;;;;;;20.36;25.63;99982.53;1680865;85;21127;-59
2022/05/24 11:50:47;;;;;;;2.55;1.50;;;;;;;20.32;25.54;99980.56;1689889;85;21452;-62
2022/05/24 11:53:37;;;;;;;3.02;1.50;;;;;;;20.38;26.04;99987.27;1689990;85;21035;-59
2022/05/24 11:56:13;;;;;;;1.95;1.30;;;;;;;20.43;25.25;99991.50;1672330;86;21009;-58
2022/05/24 11:58:47;;;;;;;4.22;1.30;;;;;;;20.42;24.99;99985.65;1672472;85;21001;-58
2022/05/24 12:01:26;;;;;;;3.58;1.32;;;;;;;20.40;25.32;99992.04;1672256;86;20969;-60
2022/05/24 12:10:25;;;;;;;1.80;1.30;;;;;;;20.25;25.59;99990.55;1672686;86;20179;-60
2022/05/24 12:13:11;;;;;;;2.08;1.30;;;;;;;20.21;25.95;99980.52;1672298;85;21040;-60
2022/05/24 12:15:48;;;;;;;2.90;1.37;;;;;;;20.24;25.82;99977.20;1672570;86;20996;-59
2022/05/24 12:18:20;;;;;;;2.55;1.40;;;;;;;20.24;25.82;99977.20;1674185;85;21449;-58
2022/05/24 12:20:56;;;;;;;2.60;1.50;;;;;;;20.31;25.90;99974.72;1690142;85;20972;-62
2022/05/24 12:23:34;;;;;;;3.00;1.55;;;;;;;20.31;25.53;99975.55;1690186;85;21015;-59
2022/05/24 12:26:07;;;;;;;3.58;1.55;;;;;;;20.33;25.54;99977.52;1690125;85;20976;-60
2022/05/24 12:28:50;;;;;;;2.40;1.35;;;;;;;20.41;25.92;99978.97;1690023;85;21039;-60
2022/05/24 12:31:25;;;;;;;2.65;1.47;;;;;;;20.46;25.95;99973.41;1690075;84;20992;-61
2022/05/24 12:33:58;;;;;;;3.27;1.77;;;;;;;20.53;25.63;99967.03;1688094;85;21003;-60
2022/05/24 12:36:46;;;;;;;2.50;1.40;;;;;;;20.52;25.59;99975.10;1688046;85;21027;-60
2022/05/24 12:39:18;;;;;;;2.12;1.50;;;;;;;20.56;25.10;99972.89;1684796;85;21036;-60
2022/05/24 12:41:54;;;;;;;2.70;1.50;;;;;;;20.56;25.20;99965.93;1688085;85;21035;-60
2022/05/24 12:44:31;;;;;;;5.05;1.50;;;;;;;20.54;25.54;99963.98;1688009;85;20999;-61
2022/05/24 12:47:11;;;;;;;4.25;1.40;;;;;;;20.54;25.46;99963.98;1687919;85;21000;-60